sensor_id;sensor_type;location;lat;lon;timestamp;temperature;humidity
26081;DHT22;13991;51.174;4.438;2022-12-15T00:02:01;-1.40;99.90
26081;DHT22;13991;51.174;4.438;2022-12-15T00:04:46;-1.50;99.90
26081;DHT22;13991;51.174;4.438;2022-12-15T00:07:30;-1.50;99.90
26081;DHT22;13991;51.174;4.438;2022-12-15T00:10:15;-1.50;99.90
26081;DHT22;13991;51.174;4.438;2022-12-15T00:12:59;-1.60;99.90
26081;DHT22;13991;51.174;4.438;2022-12-15T00:15:47;-1.60;99.90
26081;DHT22;13991;51.174;4.438;2022-12-15T00:18:32;-1.60;99.90
26081;DHT22;13991;51.174;4.438;2022-12-15T00:21:16;-1.50;99.90
26081;DHT22;13991;51.174;4.438;2022-12-15T00:24:00;-1.50;99.90
26081;DHT22;13991;51.174;4.438;2022-12-15T00:26:44;-1.50;99.90
26081;DHT22;13991;51.174;4.438;2022-12-15T00:29:28;-1.50;99.90
26081;DHT22;13991;51.174;4.438;2022-12-15T00:32:12;-1.60;99.90
26081;DHT22;13991;51.174;4.438;2022-12-15T00:34:56;-1.60;99.90
26081;DHT22;13991;51.174;4.438;2022-12-15T00:37:40;-1.60;99.90
26081;DHT22;13991;51.174;4.438;2022-12-15T00:40:24;-1.50;99.90
26081;DHT22;13991;51.174;4.438;2022-12-15T00:42:50;-1.50;99.90
26081;DHT22;13991;51.174;4.438;2022-12-15T00:45:15;-1.50;99.90
26081;DHT22;13991;51.174;4.438;2022-12-15T00:47:41;-1.50;99.90
26081;DHT22;13991;51.174;4.438;2022-12-15T00:50:07;-1.40;99.90
26081;DHT22;13991;51.174;4.438;2022-12-15T00:52:51;-1.50;99.90
26081;DHT22;13991;51.174;4.438;2022-12-15T00:55:35;-1.40;99.90
26081;DHT22;13991;51.174;4.438;2022-12-15T00:58:19;-1.50;99.90
26081;DHT22;13991;51.174;4.438;2022-12-15T01:01:09;-1.40;99.90
26081;DHT22;13991;51.174;4.438;2022-12-15T01:03:54;-1.40;99.90
26081;DHT22;13991;51.174;4.438;2022-12-15T01:06:39;-1.40;99.90
26081;DHT22;13991;51.174;4.438;2022-12-15T01:09:23;-1.50;99.90
26081;DHT22;13991;51.174;4.438;2022-12-15T01:12:07;-1.50;99.90
26081;DHT22;13991;51.174;4.438;2022-12-15T01:14:51;-1.60;99.90
26081;DHT22;13991;51.174;4.438;2022-12-15T01:17:35;-1.60;99.90
26081;DHT22;13991;51.174;4.438;2022-12-15T01:20:19;-1.70;99.90
26081;DHT22;13991;51.174;4.438;2022-12-15T01:22:47;-1.70;99.90
26081;DHT22;13991;51.174;4.438;2022-12-15T01:25:15;-1.70;99.90
26081;DHT22;13991;51.174;4.438;2022-12-15T01:27:41;-1.70;99.90
26081;DHT22;13991;51.174;4.438;2022-12-15T01:30:08;-1.70;99.90
26081;DHT22;13991;51.174;4.438;2022-12-15T01:32:35;-1.70;99.90
26081;DHT22;13991;51.174;4.438;2022-12-15T01:35:01;-1.60;99.90
26081;DHT22;13991;51.174;4.438;2022-12-15T01:37:26;-1.60;99.90
26081;DHT22;13991;51.174;4.438;2022-12-15T01:39:52;-1.60;99.90
26081;DHT22;13991;51.174;4.438;2022-12-15T01:42:36;-1.50;99.90
26081;DHT22;13991;51.174;4.438;2022-12-15T01:48:03;-1.60;99.90
26081;DHT22;13991;51.174;4.438;2022-12-15T01:50:32;-1.60;99.90
26081;DHT22;13991;51.174;4.438;2022-12-15T01:53:00;-1.70;99.90
26081;DHT22;13991;51.174;4.438;2022-12-15T01:55:27;-1.60;99.90
26081;DHT22;13991;51.174;4.438;2022-12-15T01:57:58;-1.70;99.90
26081;DHT22;13991;51.174;4.438;2022-12-15T02:00:25;-1.50;99.90
26081;DHT22;13991;51.174;4.438;2022-12-15T02:02:51;-1.60;99.90
26081;DHT22;13991;51.174;4.438;2022-12-15T02:05:19;-1.70;99.90
26081;DHT22;13991;51.174;4.438;2022-12-15T02:07:45;-1.60;99.90
26081;DHT22;13991;51.174;4.438;2022-12-15T02:10:11;-1.70;99.90
26081;DHT22;13991;51.174;4.438;2022-12-15T02:12:51;-1.60;99.90
26081;DHT22;13991;51.174;4.438;2022-12-15T02:15:36;-1.70;99.90
26081;DHT22;13991;51.174;4.438;2022-12-15T02:18:21;-1.70;99.90
26081;DHT22;13991;51.174;4.438;2022-12-15T02:20:55;-1.60;99.90
26081;DHT22;13991;51.174;4.438;2022-12-15T02:26:50;-1.60;99.90
26081;DHT22;13991;51.174;4.438;2022-12-15T02:32:42;-1.70;99.90
26081;DHT22;13991;51.174;4.438;2022-12-15T02:35:16;-1.80;99.90
26081;DHT22;13991;51.174;4.438;2022-12-15T02:37:46;-1.80;99.90
26081;DHT22;13991;51.174;4.438;2022-12-15T02:40:12;-1.90;99.90
26081;DHT22;13991;51.174;4.438;2022-12-15T02:42:47;-1.90;99.90
26081;DHT22;13991;51.174;4.438;2022-12-15T02:45:17;-1.80;99.90
26081;DHT22;13991;51.174;4.438;2022-12-15T02:59:03;-1.80;99.90
26081;DHT22;13991;51.174;4.438;2022-12-15T03:01:43;-1.80;99.90
26081;DHT22;13991;51.174;4.438;2022-12-15T03:04:11;-1.80;99.90
26081;DHT22;13991;51.174;4.438;2022-12-15T03:06:38;-1.80;99.90
26081;DHT22;13991;51.174;4.438;2022-12-15T03:09:07;-1.80;99.90
26081;DHT22;13991;51.174;4.438;2022-12-15T03:11:33;-1.70;99.90
26081;DHT22;13991;51.174;4.438;2022-12-15T03:13:59;-1.70;99.90
26081;DHT22;13991;51.174;4.438;2022-12-15T03:16:25;-1.60;99.90
26081;DHT22;13991;51.174;4.438;2022-12-15T03:18:51;-1.60;99.90
26081;DHT22;13991;51.174;4.438;2022-12-15T03:21:17;-1.70;99.90
26081;DHT22;13991;51.174;4.438;2022-12-15T03:23:42;-1.80;99.90
26081;DHT22;13991;51.174;4.438;2022-12-15T03:26:08;-1.90;99.90
26081;DHT22;13991;51.174;4.438;2022-12-15T03:28:34;-2.00;99.90
26081;DHT22;13991;51.174;4.438;2022-12-15T03:31:03;-2.00;99.90
26081;DHT22;13991;51.174;4.438;2022-12-15T03:33:28;-1.90;99.90
26081;DHT22;13991;51.174;4.438;2022-12-15T03:35:55;-1.90;99.90
26081;DHT22;13991;51.174;4.438;2022-12-15T03:38:20;-1.90;99.90
26081;DHT22;13991;51.174;4.438;2022-12-15T03:40:48;-1.80;99.90
26081;DHT22;13991;51.174;4.438;2022-12-15T03:43:14;-1.80;99.90
26081;DHT22;13991;51.174;4.438;2022-12-15T03:45:40;-1.80;99.90
26081;DHT22;13991;51.174;4.438;2022-12-15T03:48:05;-1.80;99.90
26081;DHT22;13991;51.174;4.438;2022-12-15T03:50:31;-1.80;99.90
26081;DHT22;13991;51.174;4.438;2022-12-15T03:52:59;-1.80;99.90
26081;DHT22;13991;51.174;4.438;2022-12-15T03:55:29;-1.80;99.90
26081;DHT22;13991;51.174;4.438;2022-12-15T03:57:55;-1.80;99.90
26081;DHT22;13991;51.174;4.438;2022-12-15T04:00:22;-1.80;99.90
26081;DHT22;13991;51.174;4.438;2022-12-15T04:02:49;-1.80;99.90
26081;DHT22;13991;51.174;4.438;2022-12-15T04:05:21;-1.80;99.90
26081;DHT22;13991;51.174;4.438;2022-12-15T04:07:47;-1.80;99.90
26081;DHT22;13991;51.174;4.438;2022-12-15T04:10:13;-1.90;99.90
26081;DHT22;13991;51.174;4.438;2022-12-15T04:12:38;-1.90;99.90
26081;DHT22;13991;51.174;4.438;2022-12-15T04:15:08;-1.80;99.90
26081;DHT22;13991;51.174;4.438;2022-12-15T04:17:37;-1.90;99.90
26081;DHT22;13991;51.174;4.438;2022-12-15T04:20:05;-1.90;99.90
26081;DHT22;13991;51.174;4.438;2022-12-15T04:22:39;-1.90;99.90
26081;DHT22;13991;51.174;4.438;2022-12-15T04:25:08;-2.00;99.90
26081;DHT22;13991;51.174;4.438;2022-12-15T04:27:53;-2.00;99.90
26081;DHT22;13991;51.174;4.438;2022-12-15T04:30:37;-2.10;99.90
26081;DHT22;13991;51.174;4.438;2022-12-15T04:33:24;-2.10;99.90
26081;DHT22;13991;51.174;4.438;2022-12-15T04:36:09;-2.10;99.90
26081;DHT22;13991;51.174;4.438;2022-12-15T04:38:55;-2.00;99.90
26081;DHT22;13991;51.174;4.438;2022-12-15T04:41:40;-2.00;99.90
26081;DHT22;13991;51.174;4.438;2022-12-15T04:44:24;-2.10;99.90
26081;DHT22;13991;51.174;4.438;2022-12-15T04:47:09;-2.20;99.90
26081;DHT22;13991;51.174;4.438;2022-12-15T04:49:53;-2.20;99.90
26081;DHT22;13991;51.174;4.438;2022-12-15T04:52:37;-2.20;99.90
26081;DHT22;13991;51.174;4.438;2022-12-15T04:55:21;-2.10;99.90
26081;DHT22;13991;51.174;4.438;2022-12-15T04:58:08;-2.20;99.90
26081;DHT22;13991;51.174;4.438;2022-12-15T05:00:55;-2.10;99.90
26081;DHT22;13991;51.174;4.438;2022-12-15T05:03:42;-2.20;99.90
26081;DHT22;13991;51.174;4.438;2022-12-15T05:06:26;-2.10;99.90
26081;DHT22;13991;51.174;4.438;2022-12-15T05:09:10;-2.10;99.90
26081;DHT22;13991;51.174;4.438;2022-12-15T05:11:54;-2.20;99.90
26081;DHT22;13991;51.174;4.438;2022-12-15T05:14:39;-2.20;99.90
26081;DHT22;13991;51.174;4.438;2022-12-15T05:17:23;-2.30;99.90
26081;DHT22;13991;51.174;4.438;2022-12-15T05:20:07;-2.20;99.90
26081;DHT22;13991;51.174;4.438;2022-12-15T05:22:53;-2.10;99.90
26081;DHT22;13991;51.174;4.438;2022-12-15T05:25:37;-2.10;99.90
26081;DHT22;13991;51.174;4.438;2022-12-15T05:28:21;-2.10;99.90
26081;DHT22;13991;51.174;4.438;2022-12-15T05:31:06;-2.20;99.90
26081;DHT22;13991;51.174;4.438;2022-12-15T05:33:52;-2.10;99.90
26081;DHT22;13991;51.174;4.438;2022-12-15T05:36:18;-2.10;99.90
26081;DHT22;13991;51.174;4.438;2022-12-15T05:38:46;-2.20;99.90
26081;DHT22;13991;51.174;4.438;2022-12-15T05:41:12;-2.00;99.90
26081;DHT22;13991;51.174;4.438;2022-12-15T05:43:37;-2.20;99.90
26081;DHT22;13991;51.174;4.438;2022-12-15T05:46:03;-2.20;99.90
26081;DHT22;13991;51.174;4.438;2022-12-15T05:48:29;-2.20;99.90
26081;DHT22;13991;51.174;4.438;2022-12-15T05:50:54;-2.20;99.90
26081;DHT22;13991;51.174;4.438;2022-12-15T05:53:20;-2.30;99.90
26081;DHT22;13991;51.174;4.438;2022-12-15T05:55:46;-2.30;99.90
26081;DHT22;13991;51.174;4.438;2022-12-15T05:58:11;-2.20;99.90
26081;DHT22;13991;51.174;4.438;2022-12-15T06:00:37;-2.30;99.90
26081;DHT22;13991;51.174;4.438;2022-12-15T06:03:03;-2.00;99.90
26081;DHT22;13991;51.174;4.438;2022-12-15T06:05:28;-2.20;99.90
26081;DHT22;13991;51.174;4.438;2022-12-15T06:07:54;-2.20;99.90
26081;DHT22;13991;51.174;4.438;2022-12-15T06:10:21;-2.20;99.90
26081;DHT22;13991;51.174;4.438;2022-12-15T06:12:47;-2.20;99.90
26081;DHT22;13991;51.174;4.438;2022-12-15T06:15:12;-2.10;99.90
26081;DHT22;13991;51.174;4.438;2022-12-15T06:17:38;-2.20;99.90
26081;DHT22;13991;51.174;4.438;2022-12-15T06:20:05;-2.20;99.90
26081;DHT22;13991;51.174;4.438;2022-12-15T06:22:31;-2.30;99.90
26081;DHT22;13991;51.174;4.438;2022-12-15T06:24:57;-2.30;99.90
26081;DHT22;13991;51.174;4.438;2022-12-15T06:27:22;-2.30;99.90
26081;DHT22;13991;51.174;4.438;2022-12-15T06:29:48;-2.20;99.90
26081;DHT22;13991;51.174;4.438;2022-12-15T06:32:14;-2.00;99.90
26081;DHT22;13991;51.174;4.438;2022-12-15T06:34:39;-2.30;99.90
26081;DHT22;13991;51.174;4.438;2022-12-15T06:37:05;-2.20;99.90
26081;DHT22;13991;51.174;4.438;2022-12-15T06:39:34;-2.30;99.90
26081;DHT22;13991;51.174;4.438;2022-12-15T06:41:59;-2.10;99.90
26081;DHT22;13991;51.174;4.438;2022-12-15T06:44:25;-2.30;99.90
26081;DHT22;13991;51.174;4.438;2022-12-15T06:46:50;-2.30;99.90
26081;DHT22;13991;51.174;4.438;2022-12-15T06:49:16;-2.30;99.90
26081;DHT22;13991;51.174;4.438;2022-12-15T06:51:42;-2.10;99.90
26081;DHT22;13991;51.174;4.438;2022-12-15T06:54:09;-2.20;99.90
26081;DHT22;13991;51.174;4.438;2022-12-15T06:56:35;-2.20;99.90
26081;DHT22;13991;51.174;4.438;2022-12-15T06:59:03;-2.10;99.90
26081;DHT22;13991;51.174;4.438;2022-12-15T07:01:29;-2.10;99.90
26081;DHT22;13991;51.174;4.438;2022-12-15T07:03:55;-2.10;99.90
26081;DHT22;13991;51.174;4.438;2022-12-15T07:06:21;-2.10;99.90
26081;DHT22;13991;51.174;4.438;2022-12-15T07:08:52;-2.10;99.90
26081;DHT22;13991;51.174;4.438;2022-12-15T07:11:19;-2.10;99.90
26081;DHT22;13991;51.174;4.438;2022-12-15T07:13:51;-1.90;99.90
26081;DHT22;13991;51.174;4.438;2022-12-15T07:16:17;-2.00;99.90
26081;DHT22;13991;51.174;4.438;2022-12-15T07:18:42;-2.10;99.90
26081;DHT22;13991;51.174;4.438;2022-12-15T07:21:09;-2.10;99.90
26081;DHT22;13991;51.174;4.438;2022-12-15T07:23:35;-1.90;99.90
26081;DHT22;13991;51.174;4.438;2022-12-15T07:26:06;-2.10;99.90
26081;DHT22;13991;51.174;4.438;2022-12-15T07:28:32;-2.10;99.90
26081;DHT22;13991;51.174;4.438;2022-12-15T07:31:06;-2.20;99.90
26081;DHT22;13991;51.174;4.438;2022-12-15T07:33:32;-2.20;99.90
26081;DHT22;13991;51.174;4.438;2022-12-15T07:35:59;-2.20;99.90
26081;DHT22;13991;51.174;4.438;2022-12-15T07:38:26;-2.10;99.90
26081;DHT22;13991;51.174;4.438;2022-12-15T07:40:52;-2.00;99.90
26081;DHT22;13991;51.174;4.438;2022-12-15T07:43:18;-1.90;99.90
26081;DHT22;13991;51.174;4.438;2022-12-15T07:45:43;-2.00;99.90
26081;DHT22;13991;51.174;4.438;2022-12-15T07:48:09;-2.00;99.90
26081;DHT22;13991;51.174;4.438;2022-12-15T07:50:38;-2.10;99.90
26081;DHT22;13991;51.174;4.438;2022-12-15T07:53:06;-2.00;99.90
26081;DHT22;13991;51.174;4.438;2022-12-15T07:55:31;-2.10;99.90
26081;DHT22;13991;51.174;4.438;2022-12-15T07:57:57;-2.10;99.90
26081;DHT22;13991;51.174;4.438;2022-12-15T08:00:23;-2.00;99.90
26081;DHT22;13991;51.174;4.438;2022-12-15T08:02:48;-2.00;99.90
26081;DHT22;13991;51.174;4.438;2022-12-15T08:05:14;-2.00;99.90
26081;DHT22;13991;51.174;4.438;2022-12-15T08:07:40;-1.90;99.90
26081;DHT22;13991;51.174;4.438;2022-12-15T08:10:05;-1.80;99.90
26081;DHT22;13991;51.174;4.438;2022-12-15T08:12:31;-1.90;99.90
26081;DHT22;13991;51.174;4.438;2022-12-15T08:14:57;-1.80;99.90
26081;DHT22;13991;51.174;4.438;2022-12-15T08:17:22;-1.70;99.90
26081;DHT22;13991;51.174;4.438;2022-12-15T08:19:48;-1.80;99.90
26081;DHT22;13991;51.174;4.438;2022-12-15T08:22:14;-1.80;99.90
26081;DHT22;13991;51.174;4.438;2022-12-15T08:24:40;-1.80;99.90
26081;DHT22;13991;51.174;4.438;2022-12-15T08:27:06;-1.80;99.90
26081;DHT22;13991;51.174;4.438;2022-12-15T08:29:33;-1.70;99.90
26081;DHT22;13991;51.174;4.438;2022-12-15T08:31:58;-1.60;99.90
26081;DHT22;13991;51.174;4.438;2022-12-15T08:34:24;-1.60;99.90
26081;DHT22;13991;51.174;4.438;2022-12-15T08:36:50;-1.40;99.90
26081;DHT22;13991;51.174;4.438;2022-12-15T08:39:15;-1.60;99.90
26081;DHT22;13991;51.174;4.438;2022-12-15T08:41:41;-1.70;99.90
26081;DHT22;13991;51.174;4.438;2022-12-15T08:44:07;-1.60;99.90
26081;DHT22;13991;51.174;4.438;2022-12-15T08:46:33;-1.50;99.90
26081;DHT22;13991;51.174;4.438;2022-12-15T08:49:00;-1.50;99.90
26081;DHT22;13991;51.174;4.438;2022-12-15T08:51:28;-1.50;99.90
26081;DHT22;13991;51.174;4.438;2022-12-15T08:53:54;-1.50;99.90
26081;DHT22;13991;51.174;4.438;2022-12-15T08:56:21;-1.50;99.90
26081;DHT22;13991;51.174;4.438;2022-12-15T08:58:49;-1.50;99.90
26081;DHT22;13991;51.174;4.438;2022-12-15T09:01:17;-1.50;99.90
26081;DHT22;13991;51.174;4.438;2022-12-15T09:03:43;-1.50;99.90
26081;DHT22;13991;51.174;4.438;2022-12-15T09:06:14;-1.40;99.90
26081;DHT22;13991;51.174;4.438;2022-12-15T09:08:41;-1.30;99.90
26081;DHT22;13991;51.174;4.438;2022-12-15T09:11:06;-1.30;99.90
26081;DHT22;13991;51.174;4.438;2022-12-15T09:13:33;-1.30;99.90
26081;DHT22;13991;51.174;4.438;2022-12-15T09:16:07;-1.50;99.90
26081;DHT22;13991;51.174;4.438;2022-12-15T09:18:38;-1.50;99.90
26081;DHT22;13991;51.174;4.438;2022-12-15T09:21:06;-1.40;99.90
26081;DHT22;13991;51.174;4.438;2022-12-15T09:23:32;-1.20;99.90
26081;DHT22;13991;51.174;4.438;2022-12-15T09:26:03;-1.10;99.90
26081;DHT22;13991;51.174;4.438;2022-12-15T09:28:30;-0.90;99.90
26081;DHT22;13991;51.174;4.438;2022-12-15T09:31:03;-0.90;99.90
26081;DHT22;13991;51.174;4.438;2022-12-15T09:33:29;-0.90;99.90
26081;DHT22;13991;51.174;4.438;2022-12-15T09:35:55;-0.90;99.90
26081;DHT22;13991;51.174;4.438;2022-12-15T09:38:20;-0.60;99.90
26081;DHT22;13991;51.174;4.438;2022-12-15T09:40:46;-0.70;99.90
26081;DHT22;13991;51.174;4.438;2022-12-15T09:43:17;-0.80;99.90
26081;DHT22;13991;51.174;4.438;2022-12-15T09:45:49;-0.70;99.90
26081;DHT22;13991;51.174;4.438;2022-12-15T09:48:19;-0.60;99.90
26081;DHT22;13991;51.174;4.438;2022-12-15T09:50:47;-0.50;99.90
26081;DHT22;13991;51.174;4.438;2022-12-15T09:53:16;-0.20;99.90
26081;DHT22;13991;51.174;4.438;2022-12-15T09:55:46;-0.30;99.90
26081;DHT22;13991;51.174;4.438;2022-12-15T09:58:40;-0.20;99.90
26081;DHT22;13991;51.174;4.438;2022-12-15T10:01:22;0.00;99.90
26081;DHT22;13991;51.174;4.438;2022-12-15T10:06:55;0.00;99.90
26081;DHT22;13991;51.174;4.438;2022-12-15T10:09:26;0.30;99.90
26081;DHT22;13991;51.174;4.438;2022-12-15T10:14:42;0.20;99.90
26081;DHT22;13991;51.174;4.438;2022-12-15T10:20:17;0.30;99.90
26081;DHT22;13991;51.174;4.438;2022-12-15T10:22:44;0.40;99.90
26081;DHT22;13991;51.174;4.438;2022-12-15T10:30:33;0.50;99.90
26081;DHT22;13991;51.174;4.438;2022-12-15T10:33:20;0.40;99.90
26081;DHT22;13991;51.174;4.438;2022-12-15T10:35:47;0.50;99.90
26081;DHT22;13991;51.174;4.438;2022-12-15T10:38:35;0.60;99.90
26081;DHT22;13991;51.174;4.438;2022-12-15T10:41:30;0.60;99.90
26081;DHT22;13991;51.174;4.438;2022-12-15T10:43:56;0.60;99.90
26081;DHT22;13991;51.174;4.438;2022-12-15T10:46:27;0.60;99.90
26081;DHT22;13991;51.174;4.438;2022-12-15T10:48:58;0.60;99.90
26081;DHT22;13991;51.174;4.438;2022-12-15T10:51:43;0.70;99.90
26081;DHT22;13991;51.174;4.438;2022-12-15T10:56:56;0.60;99.90
26081;DHT22;13991;51.174;4.438;2022-12-15T10:59:31;0.60;99.90
26081;DHT22;13991;51.174;4.438;2022-12-15T11:02:24;0.70;99.90
26081;DHT22;13991;51.174;4.438;2022-12-15T11:07:45;0.60;99.90
26081;DHT22;13991;51.174;4.438;2022-12-15T11:12:40;0.80;99.90
26081;DHT22;13991;51.174;4.438;2022-12-15T11:18:01;1.00;99.90
26081;DHT22;13991;51.174;4.438;2022-12-15T11:20:38;1.10;99.90
26081;DHT22;13991;51.174;4.438;2022-12-15T11:23:18;1.20;99.90
26081;DHT22;13991;51.174;4.438;2022-12-15T11:26:01;1.30;99.90
26081;DHT22;13991;51.174;4.438;2022-12-15T11:28:37;1.30;99.90
26081;DHT22;13991;51.174;4.438;2022-12-15T11:31:19;1.40;99.90
26081;DHT22;13991;51.174;4.438;2022-12-15T11:33:51;1.30;99.90
26081;DHT22;13991;51.174;4.438;2022-12-15T11:42:11;1.60;99.90
26081;DHT22;13991;51.174;4.438;2022-12-15T11:47:40;1.80;99.90
26081;DHT22;13991;51.174;4.438;2022-12-15T11:50:21;1.80;99.90
26081;DHT22;13991;51.174;4.438;2022-12-15T12:01:37;2.00;99.90
26081;DHT22;13991;51.174;4.438;2022-12-15T12:09:34;2.30;99.90
26081;DHT22;13991;51.174;4.438;2022-12-15T12:12:21;2.40;99.90
26081;DHT22;13991;51.174;4.438;2022-12-15T12:15:06;2.40;99.90
26081;DHT22;13991;51.174;4.438;2022-12-15T12:17:42;2.40;99.90
26081;DHT22;13991;51.174;4.438;2022-12-15T12:20:23;2.50;99.90
26081;DHT22;13991;51.174;4.438;2022-12-15T12:23:01;2.60;99.90
26081;DHT22;13991;51.174;4.438;2022-12-15T12:25:33;2.60;99.90
26081;DHT22;13991;51.174;4.438;2022-12-15T12:28:23;2.60;99.90
26081;DHT22;13991;51.174;4.438;2022-12-15T12:30:53;2.60;99.90
26081;DHT22;13991;51.174;4.438;2022-12-15T12:33:32;2.70;99.90
26081;DHT22;13991;51.174;4.438;2022-12-15T12:36:08;2.80;99.90
26081;DHT22;13991;51.174;4.438;2022-12-15T12:38:46;2.80;99.90
26081;DHT22;13991;51.174;4.438;2022-12-15T12:46:54;2.90;99.90
26081;DHT22;13991;51.174;4.438;2022-12-15T12:49:44;2.90;99.90
26081;DHT22;13991;51.174;4.438;2022-12-15T12:52:20;3.00;99.90
26081;DHT22;13991;51.174;4.438;2022-12-15T12:57:40;3.10;99.90
26081;DHT22;13991;51.174;4.438;2022-12-15T13:08:18;3.10;99.90
26081;DHT22;13991;51.174;4.438;2022-12-15T13:10:52;3.10;99.90
26081;DHT22;13991;51.174;4.438;2022-12-15T13:16:18;3.10;99.90
26081;DHT22;13991;51.174;4.438;2022-12-15T13:21:46;3.50;99.90
26081;DHT22;13991;51.174;4.438;2022-12-15T13:29:52;3.50;99.90
26081;DHT22;13991;51.174;4.438;2022-12-15T13:34:56;3.40;99.90
26081;DHT22;13991;51.174;4.438;2022-12-15T13:37:56;3.30;99.90
26081;DHT22;13991;51.174;4.438;2022-12-15T13:48:32;3.30;99.90
26081;DHT22;13991;51.174;4.438;2022-12-15T13:51:50;3.30;99.90
26081;DHT22;13991;51.174;4.438;2022-12-15T13:54:13;3.30;99.90
26081;DHT22;13991;51.174;4.438;2022-12-15T13:57:00;3.40;99.90
26081;DHT22;13991;51.174;4.438;2022-12-15T13:59:38;3.30;99.90
26081;DHT22;13991;51.174;4.438;2022-12-15T14:02:32;3.30;99.90
26081;DHT22;13991;51.174;4.438;2022-12-15T14:05:19;3.20;99.90
26081;DHT22;13991;51.174;4.438;2022-12-15T14:12:47;3.20;99.90
26081;DHT22;13991;51.174;4.438;2022-12-15T14:15:15;3.20;99.90
26081;DHT22;13991;51.174;4.438;2022-12-15T14:17:47;3.20;99.90
26081;DHT22;13991;51.174;4.438;2022-12-15T14:20:21;3.20;99.90
26081;DHT22;13991;51.174;4.438;2022-12-15T14:22:46;3.30;99.90
26081;DHT22;13991;51.174;4.438;2022-12-15T14:25:31;3.20;99.90
26081;DHT22;13991;51.174;4.438;2022-12-15T14:27:57;3.20;99.90
26081;DHT22;13991;51.174;4.438;2022-12-15T14:30:28;3.20;99.90
26081;DHT22;13991;51.174;4.438;2022-12-15T14:33:07;3.30;99.90
26081;DHT22;13991;51.174;4.438;2022-12-15T14:35:43;3.20;99.90
26081;DHT22;13991;51.174;4.438;2022-12-15T14:41:05;3.20;99.90
26081;DHT22;13991;51.174;4.438;2022-12-15T14:43:33;3.10;99.90
26081;DHT22;13991;51.174;4.438;2022-12-15T14:46:22;3.10;99.90
26081;DHT22;13991;51.174;4.438;2022-12-15T14:51:25;3.10;99.90
26081;DHT22;13991;51.174;4.438;2022-12-15T14:53:52;3.10;99.90
26081;DHT22;13991;51.174;4.438;2022-12-15T15:01:36;2.90;99.90
26081;DHT22;13991;51.174;4.438;2022-12-15T15:04:20;2.90;99.90
26081;DHT22;13991;51.174;4.438;2022-12-15T15:06:55;2.90;99.90
26081;DHT22;13991;51.174;4.438;2022-12-15T15:09:37;2.80;99.90
26081;DHT22;13991;51.174;4.438;2022-12-15T15:12:05;2.80;99.90
26081;DHT22;13991;51.174;4.438;2022-12-15T15:17:32;2.80;99.90
26081;DHT22;13991;51.174;4.438;2022-12-15T15:20:01;2.90;99.90
26081;DHT22;13991;51.174;4.438;2022-12-15T15:24:53;2.70;99.90
26081;DHT22;13991;51.174;4.438;2022-12-15T15:27:37;2.60;99.90
26081;DHT22;13991;51.174;4.438;2022-12-15T15:30:21;2.60;99.90
26081;DHT22;13991;51.174;4.438;2022-12-15T15:32:55;2.50;99.90
26081;DHT22;13991;51.174;4.438;2022-12-15T15:35:24;2.50;99.90
26081;DHT22;13991;51.174;4.438;2022-12-15T15:37:51;2.50;99.90
26081;DHT22;13991;51.174;4.438;2022-12-15T15:40:17;2.50;99.90
26081;DHT22;13991;51.174;4.438;2022-12-15T15:42:44;2.50;99.90
26081;DHT22;13991;51.174;4.438;2022-12-15T15:45:12;2.50;99.90
26081;DHT22;13991;51.174;4.438;2022-12-15T15:47:44;2.30;99.90
26081;DHT22;13991;51.174;4.438;2022-12-15T15:50:14;2.20;99.90
26081;DHT22;13991;51.174;4.438;2022-12-15T15:52:42;2.20;99.90
26081;DHT22;13991;51.174;4.438;2022-12-15T15:55:17;2.20;99.90
26081;DHT22;13991;51.174;4.438;2022-12-15T15:57:45;2.20;99.90
26081;DHT22;13991;51.174;4.438;2022-12-15T16:00:20;2.10;99.90
26081;DHT22;13991;51.174;4.438;2022-12-15T16:02:46;2.10;99.90
26081;DHT22;13991;51.174;4.438;2022-12-15T16:05:13;2.10;99.90
26081;DHT22;13991;51.174;4.438;2022-12-15T16:07:40;2.00;99.90
26081;DHT22;13991;51.174;4.438;2022-12-15T16:10:16;2.00;99.90
26081;DHT22;13991;51.174;4.438;2022-12-15T16:12:50;1.90;99.90
26081;DHT22;13991;51.174;4.438;2022-12-15T16:15:22;1.90;99.90
26081;DHT22;13991;51.174;4.438;2022-12-15T16:17:51;1.80;99.90
26081;DHT22;13991;51.174;4.438;2022-12-15T16:20:20;1.80;99.90
26081;DHT22;13991;51.174;4.438;2022-12-15T16:22:50;1.80;99.90
26081;DHT22;13991;51.174;4.438;2022-12-15T16:25:29;1.90;99.90
26081;DHT22;13991;51.174;4.438;2022-12-15T16:27:55;2.00;99.90
26081;DHT22;13991;51.174;4.438;2022-12-15T16:30:23;1.80;99.90
26081;DHT22;13991;51.174;4.438;2022-12-15T16:32:50;1.80;99.90
26081;DHT22;13991;51.174;4.438;2022-12-15T16:35:16;1.80;99.90
26081;DHT22;13991;51.174;4.438;2022-12-15T16:37:43;1.70;99.90
26081;DHT22;13991;51.174;4.438;2022-12-15T16:42:46;1.60;99.90
26081;DHT22;13991;51.174;4.438;2022-12-15T16:45:17;1.60;99.90
26081;DHT22;13991;51.174;4.438;2022-12-15T16:47:44;1.60;99.90
26081;DHT22;13991;51.174;4.438;2022-12-15T16:50:14;1.70;99.90
26081;DHT22;13991;51.174;4.438;2022-12-15T16:52:42;1.60;99.90
26081;DHT22;13991;51.174;4.438;2022-12-15T16:55:25;1.60;99.90
26081;DHT22;13991;51.174;4.438;2022-12-15T16:57:56;1.50;99.90
26081;DHT22;13991;51.174;4.438;2022-12-15T17:00:26;1.50;99.90
26081;DHT22;13991;51.174;4.438;2022-12-15T17:02:53;1.50;99.90
26081;DHT22;13991;51.174;4.438;2022-12-15T17:05:19;1.60;99.90
26081;DHT22;13991;51.174;4.438;2022-12-15T17:07:49;1.40;99.90
26081;DHT22;13991;51.174;4.438;2022-12-15T17:10:19;1.30;99.90
26081;DHT22;13991;51.174;4.438;2022-12-15T17:12:45;1.30;99.90
26081;DHT22;13991;51.174;4.438;2022-12-15T17:15:24;1.40;99.90
26081;DHT22;13991;51.174;4.438;2022-12-15T17:17:51;1.20;99.90
26081;DHT22;13991;51.174;4.438;2022-12-15T17:20:28;1.20;99.90
26081;DHT22;13991;51.174;4.438;2022-12-15T17:23:06;1.10;99.90
26081;DHT22;13991;51.174;4.438;2022-12-15T17:25:36;1.10;99.90
26081;DHT22;13991;51.174;4.438;2022-12-15T17:28:04;1.10;99.90
26081;DHT22;13991;51.174;4.438;2022-12-15T17:30:32;1.10;99.90
26081;DHT22;13991;51.174;4.438;2022-12-15T17:32:57;1.20;99.90
26081;DHT22;13991;51.174;4.438;2022-12-15T17:35:23;1.20;99.90
26081;DHT22;13991;51.174;4.438;2022-12-15T17:37:49;1.10;99.90
26081;DHT22;13991;51.174;4.438;2022-12-15T17:40:21;1.10;99.90
26081;DHT22;13991;51.174;4.438;2022-12-15T17:42:48;1.10;99.90
26081;DHT22;13991;51.174;4.438;2022-12-15T17:45:18;1.10;99.90
26081;DHT22;13991;51.174;4.438;2022-12-15T17:47:44;1.10;99.90
26081;DHT22;13991;51.174;4.438;2022-12-15T17:50:10;1.10;99.90
26081;DHT22;13991;51.174;4.438;2022-12-15T17:52:37;1.10;99.90
26081;DHT22;13991;51.174;4.438;2022-12-15T17:55:20;1.10;99.90
26081;DHT22;13991;51.174;4.438;2022-12-15T17:57:46;1.20;99.90
26081;DHT22;13991;51.174;4.438;2022-12-15T18:00:26;1.10;99.90
26081;DHT22;13991;51.174;4.438;2022-12-15T18:02:57;1.10;99.90
26081;DHT22;13991;51.174;4.438;2022-12-15T18:05:25;1.10;99.90
26081;DHT22;13991;51.174;4.438;2022-12-15T18:07:57;1.00;99.90
26081;DHT22;13991;51.174;4.438;2022-12-15T18:10:35;1.00;99.90
26081;DHT22;13991;51.174;4.438;2022-12-15T18:13:02;1.00;99.90
26081;DHT22;13991;51.174;4.438;2022-12-15T18:15:29;1.00;99.90
26081;DHT22;13991;51.174;4.438;2022-12-15T18:17:56;1.00;99.90
26081;DHT22;13991;51.174;4.438;2022-12-15T18:20:23;0.90;99.90